Amherst, Colorado
Current Conditions -  °F | °C
As of 9:35 PM on Saturday 22 Nov 2014 (Local Time) from KHEQ Reporting Station
Clear Clear  
Wind Chill: 41°   Ceiling: Unl
Heat Index: 45°   Visibility: 10mi
Dew Point: 19°   Wind: 6mph
Humidity: 37%   Direction: 360°N
Pressure: 29.52"   Gusts: NA
Location:  40.68°N, 102.17°W
Report Text: KHEQ 230435Z AUTO 36005KT 10SM CLR 07/M07 A2952 RMK AO2
Loading
Personal Weather Stations






























Interactive Weather Map New forecast layout! Learn more

10-Day Weather Forecast

Advertisements
Track Severe Weather on mobile